Latest Weather Observations for Orange Airport

IDN60801

Issued at 11:02 am EDT Thursday 8 December 2016 (issued every 30 minutes, with the page automatically refreshed every 10 minutes)

About weather observations | Map of weather stations | Latest weather observations for NSW | Other Formats
Station Details ID: 063303 Name: ORANGE AIRPORT AWS Lat: -33.38 Lon: 149.13 Height: 944.65 m
Data from the previous 72 hours. | See also: Recent months at Orange Airport
Date/Time
EDT
Temp
°C
App
Temp
°C
Dew
Point
°C
Rel
Hum
%
Delta-T
°C
Wind Press
QNH
hPa
Press
MSL
hPa
Rain since
9am
mm
Dir  Spd
km/h
Gust
km/h
Spd
kts
Gust
kts
08/11:00am 23.6 18.1 13.5 53 6.1 NNW 35 48 19 26 1009.7 1005.6 0.0
08/10:30am 23.4 19.3 14.9 59 5.3 NNW 30 39 16 21 1010.3 1006.2 0.0
08/10:00am 22.7 18.4 13.2 55 5.7 NNW 28 41 15 22 1010.4 1006.3 0.0
08/09:30am 22.5 19.0 14.4 60 5.0 N 26 37 14 20 1010.8 1006.8 0.0
08/09:27am 22.3 18.9 13.6 58 5.3 N 24 37 13 20 1010.8 1006.8 0.0
08/09:00am 20.6 20.2 16.2 76 2.8 N 13 19 7 10 1011.4 1007.3 0.0
08/08:30am 19.3 18.3 15.6 79 2.3 NNE 15 20 8 11 1011.7 1007.7 0.0
08/08:00am 18.1 17.6 15.0 82 1.9 N 11 17 6 9 1012.2 1008.2 0.0
08/07:30am 16.8 17.3 15.0 89 1.1 N 6 11 3 6 1012.5 1008.4 0.0
08/07:00am 14.5 15.6 13.4 93 0.6 CALM 0 0 0 0 1012.6 1008.5 0.0
08/06:30am 12.1 12.4 11.0 93 0.6 CALM 0 0 0 0 1012.5 1008.4 0.0
08/06:00am 9.9 8.3 8.8 93 0.6 N 7 7 4 4 1012.5 1008.4 0.0
08/05:30am 9.5 7.0 8.4 93 0.6 N 11 11 6 6 1012.6 1008.5 0.0
08/05:00am 8.5 5.8 7.4 93 0.5 N 11 13 6 7 1012.5 1008.4 0.0
08/04:30am 7.7 5.5 6.2 90 0.7 NNW 7 11 4 6 1012.5 1008.4 0.0
08/04:00am 8.3 7.3 5.6 83 1.3 CALM 0 0 0 0 1012.7 1008.7 0.0
08/03:48am 10.3 9.7 7.4 82 1.5 CALM 0 0 0 0 1012.8 1008.8 0.0
08/03:30am 9.9 9.3 7.2 83 1.4 CALM 0 0 0 0 1013.0 1009.0 0.0
08/03:00am 9.0 8.2 6.6 85 1.2 CALM 0 0 0 0 1013.6 1009.5 0.0
08/02:55am 9.4 8.7 7.0 85 1.2 CALM 0 0 0 0 1013.7 1009.7 0.0
08/02:40am 9.0 8.2 6.3 83 1.3 CALM 0 0 0 0 1013.8 1009.8 0.0
08/02:30am 9.4 8.6 6.5 82 1.4 CALM 0 0 0 0 1014.0 1010.0 0.0
08/02:29am 9.4 8.6 6.5 82 1.4 CALM 0 0 0 0 1014.0 1010.0 0.0
08/02:08am 9.6 8.8 6.7 82 1.4 CALM 0 0 0 0 1014.1 1010.1 0.0
08/02:00am 9.7 9.0 6.8 82 1.4 CALM 0 0 0 0 1014.3 1010.3 0.0
08/01:30am 9.9 9.2 7.0 82 1.4 CALM 0 0 0 0 1014.7 1010.7 0.0
08/01:00am 9.9 9.2 6.8 81 1.5 CALM 0 0 0 0 1015.2 1011.2 0.0
08/12:30am 9.9 7.5 7.0 82 1.4 ENE 9 11 5 6 1015.5 1011.6 0.0
08/12:00am 11.5 10.9 7.6 77 2.0 CALM 0 0 0 0 1015.5 1011.6 0.0
 
Date/Time
EDT
Temp
°C
App
Temp
°C
Dew
Point
°C
Rel
Hum
%
Delta-T
°C
Wind Press
QNH
hPa
Press
MSL
hPa
Rain since
9am
mm
Dir  Spd
km/h
Gust
km/h
Spd
kts
Gust
kts
07/11:30pm 11.5 11.0 7.8 78 1.9 CALM 0 0 0 0 1015.6 1011.7 0.0
07/11:00pm 11.2 10.6 7.3 77 2.0 CALM 0 0 0 0 1015.7 1011.8 0.0
07/10:30pm 13.0 12.5 7.7 70 2.7 CALM 0 0 0 0 1016.0 1012.0 0.0
07/10:00pm 13.4 11.7 7.6 68 3.0 SSW 6 6 3 3 1016.0 1012.0 0.0
07/09:30pm 13.3 12.8 8.0 70 2.8 CALM 0 0 0 0 1016.0 1012.0 0.0
07/09:00pm 15.7 13.2 8.0 60 4.1 SSW 11 11 6 6 1015.9 1011.9 0.0
07/08:30pm 17.2 15.3 7.5 53 5.1 SSW 7 7 4 4 1016.0 1012.0 0.0
07/08:00pm 18.3 16.0 5.8 44 6.4 SSW 7 9 4 5 1016.2 1012.2 0.0
07/07:30pm 20.8 17.9 4.8 35 8.2 SSW 9 11 5 6 1016.2 1012.2 0.0
07/07:00pm 22.3 18.9 3.9 30 9.4 WSW 11 15 6 8 1016.1 1012.1 0.0
07/06:30pm 23.0 19.4 5.0 31 9.4 SW 13 15 7 8 1016.1 1012.1 0.0
07/06:00pm 23.2 19.0 3.7 28 9.9 SSW 15 22 8 12 1016.1 1012.1 0.0
07/05:30pm 23.6 19.3 3.0 26 10.4 SW 15 20 8 11 1016.1 1012.1 0.0
07/05:00pm 23.8 19.1 3.2 26 10.5 SSW 17 22 9 12 1016.0 1012.0 0.0
07/04:30pm 24.2 19.5 5.1 29 10.1 SW 19 26 10 14 1016.1 1012.1 0.0
07/04:00pm 24.0 20.7 6.3 32 9.5 SW 13 20 7 11 1016.3 1012.3 0.0
07/03:30pm 23.8 20.1 4.2 28 10.1 WSW 13 20 7 11 1016.4 1012.4 0.0
07/03:00pm 23.7 19.3 6.5 33 9.3 SW 19 24 10 13 1016.6 1012.7 0.0
07/02:30pm 23.4 20.3 7.1 35 8.9 SSW 13 22 7 12 1016.7 1012.8 0.0
07/02:00pm 22.9 20.3 9.3 42 7.7 SSW 13 17 7 9 1017.0 1013.0 0.0
07/01:30pm 22.6 20.1 9.7 44 7.3 NW 13 20 7 11 1017.2 1013.2 0.0
07/01:00pm 22.1 19.6 9.6 45 7.0 NW 13 24 7 13 1017.6 1013.7 0.0
07/12:30pm 21.4 19.0 8.7 44 7.0 NW 11 19 6 10 1017.9 1014.0 0.0
07/12:00pm 20.9 18.9 8.5 45 6.8 N 9 17 5 9 1017.9 1014.0 0.0
07/11:30am 20.2 18.7 9.2 49 6.1 WSW 7 15 4 8 1017.9 1014.0 0.0
07/11:00am 19.6 17.7 8.9 50 5.9 NW 9 13 5 7 1018.3 1014.3 0.0
07/10:30am 18.7 17.5 8.1 50 5.7 N 4 9 2 5 1018.4 1014.5 0.0
07/10:00am 18.3 17.0 9.9 58 4.7 E 7 11 4 6 1018.2 1014.2 0.0
07/09:30am 17.4 15.5 9.1 58 4.5 ENE 9 13 5 7 1017.8 1013.9 0.0
07/09:00am 16.6 15.1 10.7 68 3.3 E 9 13 5 7 1017.8 1013.9 4.4
07/08:30am 15.6 14.0 10.2 70 3.0 E 9 11 5 6 1017.7 1013.8 4.4
07/08:00am 14.7 13.0 9.9 73 2.6 SE 9 13 5 7 1017.5 1013.6 4.4
07/07:30am 13.4 12.6 9.6 78 2.0 SSE 4 7 2 4 1017.4 1013.5 4.4
07/07:00am 11.9 10.8 10.8 93 0.6 SSE 7 9 4 5 1017.1 1013.1 4.4
07/06:30am 8.9 7.1 7.8 93 0.6 SSW 7 9 4 5 1016.7 1012.8 4.4
07/06:00am 7.0 4.9 5.9 93 0.5 SSW 6 7 3 4 1016.4 1012.4 4.4
07/05:30am 7.8 5.3 6.7 93 0.5 SSW 9 11 5 6 1016.4 1012.4 4.4
07/05:00am 8.4 7.4 7.3 93 0.5 SW 2 7 1 4 1015.9 1011.9 4.4
07/04:30am 9.1 8.6 8.0 93 0.6 CALM 0 0 0 0 1015.4 1011.4 4.4
07/04:00am 10.2 8.7 9.1 93 0.6 SW 7 9 4 5 1015.3 1011.3 4.4
07/03:30am 10.5 9.3 9.4 93 0.6 SE 6 7 3 4 1015.2 1011.2 4.4
07/03:00am 11.1 9.2 9.2 88 1.0 SSW 9 13 5 7 1015.3 1011.3 4.4
07/02:30am 11.1 8.8 9.0 87 1.1 SSW 11 15 6 8 1016.0 1012.0 4.4
07/02:00am 11.0 8.4 9.3 89 0.9 SSW 13 17 7 9 1016.4 1012.4 4.4
07/01:30am 11.1 7.6 8.7 85 1.3 SSW 17 20 9 11 1017.0 1013.0 4.4
07/01:00am 11.9 8.7 10.1 89 1.0 SW 17 22 9 12 1017.5 1013.6 3.8
07/12:30am 12.4 9.8 10.6 89 1.0 SW 15 19 8 10 1017.6 1013.7 3.4
07/12:00am 12.8 12.7 10.7 87 1.1 WSW 2 7 1 4 1016.8 1012.9 3.0
 
Date/Time
EDT
Temp
°C
App
Temp
°C
Dew
Point
°C
Rel
Hum
%
Delta-T
°C
Wind Press
QNH
hPa
Press
MSL
hPa
Rain since
9am
mm
Dir  Spd
km/h
Gust
km/h
Spd
kts
Gust
kts
06/11:30pm 13.5 11.8 9.7 78 2.1 SSW 9 11 5 6 1017.0 1013.0 2.8
06/11:00pm 13.6 11.6 10.2 80 1.9 S 11 15 6 8 1016.8 1012.9 2.8
06/10:30pm 14.2 10.6 10.0 76 2.3 SSW 19 26 10 14 1016.5 1012.6 2.8
06/10:00pm 15.1 11.9 9.9 71 2.8 SSW 17 22 9 12 1016.4 1012.4 2.8
06/09:30pm 15.3 13.5 10.9 75 2.5 SSW 11 17 6 9 1016.7 1012.8 2.8
06/09:00pm 15.4 12.7 11.6 78 2.1 SW 17 22 9 12 1016.6 1012.7 2.8
06/08:30pm 15.7 13.6 13.7 88 1.2 SW 17 26 9 14 1016.6 1012.7 2.8
06/08:00pm 16.0 14.4 14.9 93 0.7 WSW 17 20 9 11 1016.5 1012.6 2.8
06/07:30pm 16.5 15.4 15.4 93 0.7 WSW 15 20 8 11 1016.3 1012.3 2.8
06/07:00pm 16.7 15.7 15.6 93 0.7 SW 15 17 8 9 1015.9 1011.9 2.8
06/06:47pm 16.8 15.7 15.3 91 0.9 WSW 15 20 8 11 1015.7 1011.8 2.8
06/06:30pm 17.2 16.5 15.4 89 1.1 WSW 13 20 7 11 1015.5 1011.6 2.8
06/06:18pm 17.4 17.7 15.9 91 0.9 SW 9 13 5 7 1015.4 1011.4 2.8
06/06:00pm 17.4 16.8 15.6 89 1.1 SW 13 17 7 9 1015.5 1011.6 2.8
06/05:30pm 17.5 17.0 15.8 90 1.0 SW 13 19 7 10 1015.1 1011.1 2.8
06/05:00pm 17.6 16.9 16.5 93 0.7 SW 15 19 8 10 1015.1 1011.1 2.8
06/04:46pm 17.1 15.5 16.0 93 0.7 SW 19 26 10 14 1015.3 1011.3 2.8
06/04:30pm 16.8 14.9 15.7 93 0.7 SW 20 28 11 15 1015.5 1011.6 2.8
06/04:09pm 16.7 14.7 15.6 93 0.7 SSW 20 26 11 14 1015.7 1011.8 2.6
06/04:00pm 17.3 15.6 16.2 93 0.7 SW 20 24 11 13 1015.6 1011.7 2.4
06/03:30pm 17.7 16.1 16.6 93 0.7 WSW 20 32 11 17 1015.9 1011.9 2.2
06/03:00pm 17.7 17.5 16.6 93 0.7 SW 13 17 7 9 1016.2 1012.2 1.8
06/02:30pm 17.7 16.7 16.6 93 0.7 SW 17 22 9 12 1016.2 1012.2 1.0
06/02:00pm 17.5 16.0 16.4 93 0.7 SW 19 24 10 13 1016.1 1012.1 1.0
06/01:30pm 18.3 15.8 17.1 93 0.8 WSW 26 37 14 20 1016.3 1012.3 0.6
06/01:00pm 18.9 18.0 17.7 93 0.8 WSW 19 24 10 13 1016.1 1012.1 0.6
06/12:44pm 19.1 19.4 17.9 93 0.8 W 13 20 7 11 1016.5 1012.6 0.6
06/12:30pm 19.2 18.7 17.7 91 1.0 W 17 24 9 13 1016.3 1012.3 0.4
06/12:00pm 19.6 17.7 16.6 83 1.9 W 22 30 12 16 1016.8 1012.9 0.2
06/11:30am 20.5 18.6 16.7 79 2.4 W 22 30 12 16 1016.2 1012.2 0.2
06/11:00am 20.3 19.1 17.5 84 1.8 WNW 20 26 11 14 1016.2 1012.2 0.2
06/10:30am 20.0 19.3 17.4 85 1.7 NW 17 20 9 11 1016.0 1012.0 0.2
06/10:00am 20.5 19.7 17.1 81 2.2 WNW 17 22 9 12 1015.9 1011.9 0.0
06/09:30am 20.9 18.8 16.3 75 2.9 NW 22 30 12 16 1016.3 1012.3 0.0
06/09:00am 21.3 19.3 16.5 74 3.0 NW 22 30 12 16 1015.9 1011.9 0.8
06/08:30am 22.0 21.7 16.5 71 3.5 WNW 13 17 7 9 1015.7 1011.8 0.8
06/08:00am 20.6 21.1 16.6 78 2.5 WNW 9 11 5 6 1015.5 1011.6 0.8
06/07:30am 19.5 21.3 16.5 83 1.9 NW 2 7 1 4 1015.1 1011.1 0.8
06/07:00am 18.5 19.4 16.5 88 1.2 NNW 7 9 4 5 1015.1 1011.1 0.8
06/06:30am 18.0 18.7 15.6 86 1.5 NNW 6 9 3 5 1015.3 1011.3 0.8
06/06:00am 17.8 18.5 16.1 90 1.1 W 7 9 4 5 1015.3 1011.3 0.8
06/05:30am 17.7 17.7 16.2 91 0.9 W 11 13 6 7 1014.7 1010.7 0.8
06/05:00am 17.2 18.1 16.1 93 0.7 NNW 6 9 3 5 1013.8 1009.8 0.8
06/04:30am 16.9 17.5 15.8 93 0.7 WNW 7 7 4 4 1013.7 1009.7 0.8
06/04:00am 17.5 19.5 16.0 91 0.9 CALM 0 0 0 0 1013.7 1009.7 0.8
06/03:30am 17.6 19.6 16.1 91 0.9 CALM 0 2 0 1 1013.8 1009.8 0.8
06/03:00am 17.7 18.3 15.9 89 1.1 ENE 7 9 4 5 1014.1 1010.1 0.8
06/02:30am 17.9 18.8 16.2 90 1.1 SE 6 11 3 6 1014.8 1010.8 0.8
06/02:00am 18.1 20.2 16.3 89 1.1 CALM 0 0 0 0 1015.0 1011.0 0.8
06/01:30am 17.6 19.6 16.1 91 0.9 CALM 0 0 0 0 1015.1 1011.1 0.8
06/01:00am 17.9 19.9 16.1 89 1.1 CALM 0 0 0 0 1015.4 1011.4 0.8
06/12:30am 17.9 19.1 16.8 93 0.7 WNW 6 7 3 4 1016.1 1012.1 0.8
06/12:00am 18.4 19.9 16.6 89 1.1 WSW 4 7 2 4 1016.1 1012.1 0.8
 
Date/Time
EDT
Temp
°C
App
Temp
°C
Dew
Point
°C
Rel
Hum
%
Delta-T
°C
Wind Press
QNH
hPa
Press
MSL
hPa
Rain since
9am
mm
Dir  Spd
km/h
Gust
km/h
Spd
kts
Gust
kts
05/11:30pm 19.0 21.1 16.2 84 1.7 CALM 0 0 0 0 1016.2 1012.2 0.8
05/11:00pm 18.6 20.1 16.6 88 1.3 SSE 4 9 2 5 1016.5 1012.6 0.8
05/10:30pm 18.6 20.4 15.5 82 1.9 CALM 0 0 0 0 1016.5 1012.6 0.8
05/10:00pm 18.8 18.8 15.3 80 2.1 NNW 9 11 5 6 1016.8 1012.9 0.8
05/09:30pm 19.7 18.9 15.1 75 2.8 NW 13 17 7 9 1017.0 1013.0 0.4
05/09:00pm 20.7 19.6 15.3 71 3.3 WSW 15 15 8 8 1016.6 1012.7 0.2
05/08:30pm 21.8 20.4 13.4 59 5.0 SSW 13 17 7 9 1015.9 1011.9 0.2
05/08:00pm 22.9 21.4 13.1 54 5.9 SW 13 19 7 10 1015.9 1011.9 0.2
05/07:30pm 23.1 22.0 13.0 53 6.1 W 11 20 6 11 1015.4 1011.4 0.2
05/07:00pm 23.1 23.7 15.4 62 4.8 WNW 6 9 3 5 1014.9 1010.9 0.2
05/06:30pm 22.2 23.1 17.6 75 3.0 NW 9 11 5 6 1014.9 1010.9 0.2
05/06:00pm 23.4 24.1 15.7 62 4.8 W 6 7 3 4 1014.5 1010.6 0.2
05/05:30pm 24.0 25.6 16.0 61 5.1 W 2 7 1 4 1014.3 1010.3 0.2
05/05:00pm 24.3 24.9 15.2 57 5.7 W 6 9 3 5 1014.5 1010.6 0.2
05/04:30pm 24.7 24.9 14.8 54 6.2 WSW 7 9 4 5 1014.7 1010.7 0.2
05/04:00pm 24.8 23.3 14.3 52 6.5 WSW 15 20 8 11 1014.8 1010.8 0.2
05/03:30pm 25.4 24.7 15.4 54 6.3 WSW 13 19 7 10 1014.8 1010.8 0.2
05/03:00pm 24.0 24.0 17.3 66 4.3 WSW 13 19 7 10 1015.2 1011.2 0.2
05/02:30pm 22.8 20.8 15.6 64 4.5 W 20 28 11 15 1016.0 1012.0 0.0
05/02:00pm 26.0 23.2 13.2 45 7.8 W 20 28 11 15 1015.1 1011.1 0.0
05/01:30pm 28.6 25.5 12.1 36 10.0 W 20 28 11 15 1014.5 1010.6 0.0
05/01:00pm 29.0 25.3 11.6 34 10.5 W 22 32 12 17 1014.5 1010.6 0.0
05/12:30pm 29.4 25.7 12.8 36 10.2 W 24 30 13 16 1014.7 1010.7 0.0
05/12:00pm 28.5 24.2 12.0 36 10.0 W 26 37 14 20 1014.9 1010.9 0.0
05/11:30am 30.2 26.5 13.9 37 10.2 WNW 26 39 14 21 1014.8 1010.8 0.0

Other Formats:

Comma delimited format used in spreadsheet applications
http://www.bom.gov.au/fwo/IDN60801/IDN60801.95726.axf

JavaScript Object Notation format (JSON) in row-major order
http://www.bom.gov.au/fwo/IDN60801/IDN60801.95726.json